sensor_id;sensor_type;location;lat;lon;timestamp;temperature;humidity
78520;SHT31;67818;51.986;5.648;2023-03-23T00:01:55;13.4;74.1
78520;SHT31;67818;51.986;5.648;2023-03-23T00:04:25;13.4;73.9
78520;SHT31;67818;51.986;5.648;2023-03-23T00:06:54;13.4;74.1
78520;SHT31;67818;51.986;5.648;2023-03-23T00:09:24;13.3;74.2
78520;SHT31;67818;51.986;5.648;2023-03-23T00:11:53;13.3;74.1
78520;SHT31;67818;51.986;5.648;2023-03-23T00:14:25;13.3;73.9
78520;SHT31;67818;51.986;5.648;2023-03-23T00:19:19;13.7;72.3
78520;SHT31;67818;51.986;5.648;2023-03-23T00:21:49;13.7;72.3
78520;SHT31;67818;51.986;5.648;2023-03-23T00:24:21;13.7;72.3
78520;SHT31;67818;51.986;5.648;2023-03-23T00:26:50;13.7;71.9
78520;SHT31;67818;51.986;5.648;2023-03-23T00:29:22;13.7;72.2
78520;SHT31;67818;51.986;5.648;2023-03-23T00:31:53;13.7;72.1
78520;SHT31;67818;51.986;5.648;2023-03-23T00:34:24;13.7;72.2
78520;SHT31;67818;51.986;5.648;2023-03-23T00:37:01;13.7;72.2
78520;SHT31;67818;51.986;5.648;2023-03-23T00:39:30;13.7;72.6
78520;SHT31;67818;51.986;5.648;2023-03-23T00:42:00;13.7;72.7
78520;SHT31;67818;51.986;5.648;2023-03-23T00:44:31;13.7;73.3
78520;SHT31;67818;51.986;5.648;2023-03-23T00:47:03;13.7;73.5
78520;SHT31;67818;51.986;5.648;2023-03-23T00:49:33;13.6;73.6
78520;SHT31;67818;51.986;5.648;2023-03-23T00:52:05;13.6;73.4
78520;SHT31;67818;51.986;5.648;2023-03-23T00:54:36;13.5;73.9
78520;SHT31;67818;51.986;5.648;2023-03-23T00:57:06;13.5;73.9
78520;SHT31;67818;51.986;5.648;2023-03-23T00:59:39;13.4;74.1
78520;SHT31;67818;51.986;5.648;2023-03-23T01:04:10;13.3;74.3
78520;SHT31;67818;51.986;5.648;2023-03-23T01:06:41;13.3;74.2
78520;SHT31;67818;51.986;5.648;2023-03-23T01:09:14;13.3;73.7
78520;SHT31;67818;51.986;5.648;2023-03-23T01:12:05;13.4;73.4
78520;SHT31;67818;51.986;5.648;2023-03-23T01:14:37;13.4;73.2
78520;SHT31;67818;51.986;5.648;2023-03-23T01:18:55;13.4;72.9
78520;SHT31;67818;51.986;5.648;2023-03-23T01:23:41;13.5;72.3
78520;SHT31;67818;51.986;5.648;2023-03-23T01:27:19;13.4;72.2
78520;SHT31;67818;51.986;5.648;2023-03-23T01:29:48;13.4;72.4
78520;SHT31;67818;51.986;5.648;2023-03-23T01:32:19;13.5;71.9
78520;SHT31;67818;51.986;5.648;2023-03-23T01:34:48;13.5;72.0
78520;SHT31;67818;51.986;5.648;2023-03-23T01:37:18;13.5;72.6
78520;SHT31;67818;51.986;5.648;2023-03-23T01:39:54;13.5;72.3
78520;SHT31;67818;51.986;5.648;2023-03-23T01:42:29;13.5;72.3
78520;SHT31;67818;51.986;5.648;2023-03-23T01:45:42;13.5;72.1
78520;SHT31;67818;51.986;5.648;2023-03-23T01:48:16;13.5;72.6
78520;SHT31;67818;51.986;5.648;2023-03-23T01:51:01;13.5;72.4
78520;SHT31;67818;51.986;5.648;2023-03-23T01:53:36;13.5;72.7
78520;SHT31;67818;51.986;5.648;2023-03-23T01:56:09;13.4;72.3
78520;SHT31;67818;51.986;5.648;2023-03-23T01:58:42;13.4;72.3
78520;SHT31;67818;51.986;5.648;2023-03-23T02:01:13;13.4;72.6
78520;SHT31;67818;51.986;5.648;2023-03-23T02:03:45;13.4;72.4
78520;SHT31;67818;51.986;5.648;2023-03-23T02:06:54;13.7;71.3
78520;SHT31;67818;51.986;5.648;2023-03-23T02:10:32;13.7;71.3
78520;SHT31;67818;51.986;5.648;2023-03-23T02:13:28;13.7;71.3
78520;SHT31;67818;51.986;5.648;2023-03-23T02:16:05;13.7;71.5
78520;SHT31;67818;51.986;5.648;2023-03-23T02:18:56;13.7;71.3
78520;SHT31;67818;51.986;5.648;2023-03-23T02:21:58;13.7;71.7
78520;SHT31;67818;51.986;5.648;2023-03-23T02:29:36;13.8;71.9
78520;SHT31;67818;51.986;5.648;2023-03-23T02:32:24;13.8;71.4
78520;SHT31;67818;51.986;5.648;2023-03-23T02:35:01;13.8;71.4
78520;SHT31;67818;51.986;5.648;2023-03-23T02:37:36;13.8;71.4
78520;SHT31;67818;51.986;5.648;2023-03-23T02:40:13;13.8;71.5
78520;SHT31;67818;51.986;5.648;2023-03-23T02:42:49;13.8;71.5
78520;SHT31;67818;51.986;5.648;2023-03-23T02:45:22;13.8;71.5
78520;SHT31;67818;51.986;5.648;2023-03-23T02:48:29;14.1;70.6
78520;SHT31;67818;51.986;5.648;2023-03-23T02:51:01;14.0;70.6
78520;SHT31;67818;51.986;5.648;2023-03-23T02:53:37;14.0;70.7
78520;SHT31;67818;51.986;5.648;2023-03-23T02:56:10;14.0;70.8
78520;SHT31;67818;51.986;5.648;2023-03-23T02:58:41;14.0;70.9
78520;SHT31;67818;51.986;5.648;2023-03-23T03:04:12;14.0;71.1
78520;SHT31;67818;51.986;5.648;2023-03-23T03:06:47;14.0;71.0
78520;SHT31;67818;51.986;5.648;2023-03-23T03:09:30;14.0;71.1
78520;SHT31;67818;51.986;5.648;2023-03-23T03:12:07;14.0;70.6
78520;SHT31;67818;51.986;5.648;2023-03-23T03:15:12;14.0;70.1
78520;SHT31;67818;51.986;5.648;2023-03-23T03:19:32;14.0;69.8
78520;SHT31;67818;51.986;5.648;2023-03-23T03:24:32;14.1;69.1
78520;SHT31;67818;51.986;5.648;2023-03-23T03:27:12;14.0;69.6
78520;SHT31;67818;51.986;5.648;2023-03-23T03:30:17;14.1;68.9
78520;SHT31;67818;51.986;5.648;2023-03-23T03:32:52;14.1;68.4
78520;SHT31;67818;51.986;5.648;2023-03-23T03:35:25;14.1;68.9
78520;SHT31;67818;51.986;5.648;2023-03-23T03:40:39;14.1;68.7
78520;SHT31;67818;51.986;5.648;2023-03-23T03:43:09;14.1;68.7
78520;SHT31;67818;51.986;5.648;2023-03-23T03:46:54;14.1;68.8
78520;SHT31;67818;51.986;5.648;2023-03-23T03:49:24;14.2;68.8
78520;SHT31;67818;51.986;5.648;2023-03-23T03:51:53;14.2;68.9
78520;SHT31;67818;51.986;5.648;2023-03-23T03:54:24;14.2;68.6
78520;SHT31;67818;51.986;5.648;2023-03-23T03:56:54;14.2;68.7
78520;SHT31;67818;51.986;5.648;2023-03-23T03:59:27;14.2;69.1
78520;SHT31;67818;51.986;5.648;2023-03-23T04:01:58;14.2;69.2
78520;SHT31;67818;51.986;5.648;2023-03-23T04:04:27;14.2;69.0
78520;SHT31;67818;51.986;5.648;2023-03-23T04:07:06;14.3;68.3
78520;SHT31;67818;51.986;5.648;2023-03-23T04:09:38;14.3;68.3
78520;SHT31;67818;51.986;5.648;2023-03-23T04:12:12;14.3;68.3
78520;SHT31;67818;51.986;5.648;2023-03-23T04:14:42;14.3;68.4
78520;SHT31;67818;51.986;5.648;2023-03-23T04:17:11;14.3;68.1
78520;SHT31;67818;51.986;5.648;2023-03-23T04:19:44;14.3;67.9
78520;SHT31;67818;51.986;5.648;2023-03-23T04:22:15;14.3;67.8
78520;SHT31;67818;51.986;5.648;2023-03-23T04:24:45;14.3;68.0
78520;SHT31;67818;51.986;5.648;2023-03-23T04:27:18;14.2;67.7
78520;SHT31;67818;51.986;5.648;2023-03-23T04:29:47;14.2;67.6
78520;SHT31;67818;51.986;5.648;2023-03-23T04:32:17;14.2;67.9
78520;SHT31;67818;51.986;5.648;2023-03-23T04:34:49;14.2;68.1
78520;SHT31;67818;51.986;5.648;2023-03-23T04:37:19;14.2;67.9
78520;SHT31;67818;51.986;5.648;2023-03-23T04:39:53;14.2;67.7
78520;SHT31;67818;51.986;5.648;2023-03-23T04:42:30;14.2;67.9
78520;SHT31;67818;51.986;5.648;2023-03-23T04:45:01;14.2;67.7
78520;SHT31;67818;51.986;5.648;2023-03-23T04:47:33;14.2;67.5
78520;SHT31;67818;51.986;5.648;2023-03-23T04:50:08;14.1;67.5
78520;SHT31;67818;51.986;5.648;2023-03-23T04:52:39;14.1;67.3
78520;SHT31;67818;51.986;5.648;2023-03-23T04:55:12;14.1;67.1
78520;SHT31;67818;51.986;5.648;2023-03-23T04:57:43;14.1;67.4
78520;SHT31;67818;51.986;5.648;2023-03-23T05:00:13;14.1;66.9
78520;SHT31;67818;51.986;5.648;2023-03-23T05:02:46;14.1;67.3
78520;SHT31;67818;51.986;5.648;2023-03-23T05:05:20;14.1;67.4
78520;SHT31;67818;51.986;5.648;2023-03-23T05:07:49;14.0;67.3
78520;SHT31;67818;51.986;5.648;2023-03-23T05:13:55;14.3;66.0
78520;SHT31;67818;51.986;5.648;2023-03-23T05:16:25;14.3;66.1
78520;SHT31;67818;51.986;5.648;2023-03-23T05:18:56;14.3;65.9
78520;SHT31;67818;51.986;5.648;2023-03-23T05:21:28;14.3;65.7
78520;SHT31;67818;51.986;5.648;2023-03-23T05:23:57;14.3;65.7
78520;SHT31;67818;51.986;5.648;2023-03-23T05:26:28;14.3;65.8
78520;SHT31;67818;51.986;5.648;2023-03-23T05:29:00;14.3;66.0
78520;SHT31;67818;51.986;5.648;2023-03-23T05:31:29;14.3;65.9
78520;SHT31;67818;51.986;5.648;2023-03-23T05:33:59;14.3;66.2
78520;SHT31;67818;51.986;5.648;2023-03-23T05:36:29;14.4;66.6
78520;SHT31;67818;51.986;5.648;2023-03-23T05:38:59;14.4;66.4
78520;SHT31;67818;51.986;5.648;2023-03-23T05:41:31;14.4;66.0
78520;SHT31;67818;51.986;5.648;2023-03-23T05:44:01;14.4;66.0
78520;SHT31;67818;51.986;5.648;2023-03-23T05:46:31;14.4;65.8
78520;SHT31;67818;51.986;5.648;2023-03-23T05:49:01;14.4;66.2
78520;SHT31;67818;51.986;5.648;2023-03-23T05:51:30;14.3;66.1
78520;SHT31;67818;51.986;5.648;2023-03-23T05:54:00;14.3;66.5
78520;SHT31;67818;51.986;5.648;2023-03-23T05:56:30;14.2;66.3
78520;SHT31;67818;51.986;5.648;2023-03-23T05:59:00;14.2;66.4
78520;SHT31;67818;51.986;5.648;2023-03-23T06:01:30;14.2;66.6
78520;SHT31;67818;51.986;5.648;2023-03-23T06:04:01;14.1;66.7
78520;SHT31;67818;51.986;5.648;2023-03-23T06:06:31;14.1;66.9
78520;SHT31;67818;51.986;5.648;2023-03-23T06:09:01;14.1;67.4
78520;SHT31;67818;51.986;5.648;2023-03-23T06:11:31;14.1;67.4
78520;SHT31;67818;51.986;5.648;2023-03-23T06:14:00;14.1;67.6
78520;SHT31;67818;51.986;5.648;2023-03-23T06:16:30;14.1;67.4
78520;SHT31;67818;51.986;5.648;2023-03-23T06:19:00;14.1;67.4
78520;SHT31;67818;51.986;5.648;2023-03-23T06:21:31;14.1;67.2
78520;SHT31;67818;51.986;5.648;2023-03-23T06:24:01;14.0;67.3
78520;SHT31;67818;51.986;5.648;2023-03-23T06:26:35;14.0;67.5
78520;SHT31;67818;51.986;5.648;2023-03-23T06:29:06;14.0;67.5
78520;SHT31;67818;51.986;5.648;2023-03-23T06:31:42;14.0;67.3
78520;SHT31;67818;51.986;5.648;2023-03-23T06:34:12;14.0;67.8
78520;SHT31;67818;51.986;5.648;2023-03-23T06:36:42;14.1;67.3
78520;SHT31;67818;51.986;5.648;2023-03-23T06:39:12;14.1;67.4
78520;SHT31;67818;51.986;5.648;2023-03-23T06:41:43;14.1;67.7
78520;SHT31;67818;51.986;5.648;2023-03-23T06:44:13;14.1;67.5
78520;SHT31;67818;51.986;5.648;2023-03-23T06:46:43;14.1;67.5
78520;SHT31;67818;51.986;5.648;2023-03-23T06:49:13;14.1;67.5
78520;SHT31;67818;51.986;5.648;2023-03-23T06:51:43;14.1;67.5
78520;SHT31;67818;51.986;5.648;2023-03-23T06:54:14;14.1;67.4
78520;SHT31;67818;51.986;5.648;2023-03-23T06:56:43;14.1;67.2
78520;SHT31;67818;51.986;5.648;2023-03-23T06:59:14;14.1;67.7
78520;SHT31;67818;51.986;5.648;2023-03-23T07:01:44;14.1;67.6
78520;SHT31;67818;51.986;5.648;2023-03-23T07:04:13;14.2;67.1
78520;SHT31;67818;51.986;5.648;2023-03-23T07:06:43;14.2;67.0
78520;SHT31;67818;51.986;5.648;2023-03-23T07:09:15;14.2;67.0
78520;SHT31;67818;51.986;5.648;2023-03-23T07:11:45;14.2;66.7
78520;SHT31;67818;51.986;5.648;2023-03-23T07:14:15;14.2;67.4
78520;SHT31;67818;51.986;5.648;2023-03-23T07:16:44;14.2;67.1
78520;SHT31;67818;51.986;5.648;2023-03-23T07:19:14;14.2;67.1
78520;SHT31;67818;51.986;5.648;2023-03-23T07:21:44;14.2;67.1
78520;SHT31;67818;51.986;5.648;2023-03-23T07:24:14;14.3;67.2
78520;SHT31;67818;51.986;5.648;2023-03-23T07:26:44;14.3;67.2
78520;SHT31;67818;51.986;5.648;2023-03-23T07:29:14;14.3;66.8
78520;SHT31;67818;51.986;5.648;2023-03-23T07:31:44;14.4;66.7
78520;SHT31;67818;51.986;5.648;2023-03-23T07:34:14;14.4;67.1
78520;SHT31;67818;51.986;5.648;2023-03-23T07:36:43;14.4;66.9
78520;SHT31;67818;51.986;5.648;2023-03-23T07:39:14;14.4;67.3
78520;SHT31;67818;51.986;5.648;2023-03-23T07:41:44;14.4;66.7
78520;SHT31;67818;51.986;5.648;2023-03-23T07:44:13;14.4;66.5
78520;SHT31;67818;51.986;5.648;2023-03-23T07:46:43;14.4;66.4
78520;SHT31;67818;51.986;5.648;2023-03-23T07:49:16;14.4;66.6
78520;SHT31;67818;51.986;5.648;2023-03-23T07:51:46;14.3;67.0
78520;SHT31;67818;51.986;5.648;2023-03-23T07:54:16;14.3;67.8
78520;SHT31;67818;51.986;5.648;2023-03-23T07:56:46;14.2;68.2
78520;SHT31;67818;51.986;5.648;2023-03-23T07:59:15;14.2;69.3
78520;SHT31;67818;51.986;5.648;2023-03-23T08:01:45;14.1;68.7
78520;SHT31;67818;51.986;5.648;2023-03-23T08:04:14;14.0;69.5
78520;SHT31;67818;51.986;5.648;2023-03-23T08:06:45;14.0;70.5
78520;SHT31;67818;51.986;5.648;2023-03-23T08:09:14;13.9;70.6
78520;SHT31;67818;51.986;5.648;2023-03-23T08:11:46;13.8;71.2
78520;SHT31;67818;51.986;5.648;2023-03-23T08:14:16;13.8;71.6
78520;SHT31;67818;51.986;5.648;2023-03-23T08:16:45;13.7;72.8
78520;SHT31;67818;51.986;5.648;2023-03-23T08:19:18;13.6;73.2
78520;SHT31;67818;51.986;5.648;2023-03-23T08:21:48;13.6;73.6
78520;SHT31;67818;51.986;5.648;2023-03-23T08:24:20;13.6;74.1
78520;SHT31;67818;51.986;5.648;2023-03-23T08:26:50;13.5;74.1
78520;SHT31;67818;51.986;5.648;2023-03-23T08:29:19;13.5;74.7
78520;SHT31;67818;51.986;5.648;2023-03-23T08:34:41;13.8;72.8
78520;SHT31;67818;51.986;5.648;2023-03-23T08:37:13;13.8;72.7
78520;SHT31;67818;51.986;5.648;2023-03-23T08:39:53;13.9;72.8
78520;SHT31;67818;51.986;5.648;2023-03-23T08:42:25;13.9;72.6
78520;SHT31;67818;51.986;5.648;2023-03-23T08:44:55;14.0;72.0
78520;SHT31;67818;51.986;5.648;2023-03-23T08:47:27;14.1;70.8
78520;SHT31;67818;51.986;5.648;2023-03-23T08:49:56;14.1;70.3
78520;SHT31;67818;51.986;5.648;2023-03-23T08:52:26;14.1;70.2
78520;SHT31;67818;51.986;5.648;2023-03-23T08:54:56;14.1;70.0
78520;SHT31;67818;51.986;5.648;2023-03-23T08:57:26;14.1;69.6
78520;SHT31;67818;51.986;5.648;2023-03-23T08:59:57;14.0;69.8
78520;SHT31;67818;51.986;5.648;2023-03-23T09:02:28;14.0;69.8
78520;SHT31;67818;51.986;5.648;2023-03-23T09:07:01;14.2;69.2
78520;SHT31;67818;51.986;5.648;2023-03-23T09:11:27;14.5;68.0
78520;SHT31;67818;51.986;5.648;2023-03-23T09:16:22;14.7;67.8
78520;SHT31;67818;51.986;5.648;2023-03-23T09:18:52;14.9;65.9
78520;SHT31;67818;51.986;5.648;2023-03-23T09:21:24;14.9;65.4
78520;SHT31;67818;51.986;5.648;2023-03-23T09:23:55;14.9;66.2
78520;SHT31;67818;51.986;5.648;2023-03-23T09:31:36;15.5;63.9
78520;SHT31;67818;51.986;5.648;2023-03-23T09:34:08;15.4;63.5
78520;SHT31;67818;51.986;5.648;2023-03-23T09:36:43;15.4;62.7
78520;SHT31;67818;51.986;5.648;2023-03-23T09:39:14;15.4;63.5
78520;SHT31;67818;51.986;5.648;2023-03-23T09:43:29;16.0;62.5
78520;SHT31;67818;51.986;5.648;2023-03-23T09:48:54;16.1;61.4
78520;SHT31;67818;51.986;5.648;2023-03-23T09:51:40;16.3;60.5
78520;SHT31;67818;51.986;5.648;2023-03-23T09:54:17;16.3;60.7
78520;SHT31;67818;51.986;5.648;2023-03-23T09:56:50;16.4;59.1
78520;SHT31;67818;51.986;5.648;2023-03-23T09:59:27;16.3;58.8
78520;SHT31;67818;51.986;5.648;2023-03-23T10:02:03;16.3;59.0
78520;SHT31;67818;51.986;5.648;2023-03-23T10:04:43;16.4;61.2
78520;SHT31;67818;51.986;5.648;2023-03-23T10:08:33;17.7;55.1
78520;SHT31;67818;51.986;5.648;2023-03-23T10:11:04;17.8;54.5
78520;SHT31;67818;51.986;5.648;2023-03-23T10:13:52;17.8;55.4
78520;SHT31;67818;51.986;5.648;2023-03-23T10:16:31;17.9;54.0
78520;SHT31;67818;51.986;5.648;2023-03-23T10:19:12;18.0;53.6
78520;SHT31;67818;51.986;5.648;2023-03-23T10:25:52;18.1;53.1
78520;SHT31;67818;51.986;5.648;2023-03-23T10:34:27;18.9;50.8
78520;SHT31;67818;51.986;5.648;2023-03-23T10:37:03;18.8;51.4
78520;SHT31;67818;51.986;5.648;2023-03-23T10:39:40;18.8;50.3
78520;SHT31;67818;51.986;5.648;2023-03-23T10:42:28;18.7;50.4
78520;SHT31;67818;51.986;5.648;2023-03-23T11:01:12;18.8;48.2
78520;SHT31;67818;51.986;5.648;2023-03-23T11:05:36;18.6;48.2
78520;SHT31;67818;51.986;5.648;2023-03-23T11:08:13;18.3;50.0
78520;SHT31;67818;51.986;5.648;2023-03-23T11:10:51;18.3;49.8
78520;SHT31;67818;51.986;5.648;2023-03-23T11:13:28;18.1;49.8
78520;SHT31;67818;51.986;5.648;2023-03-23T11:17:25;18.2;48.7
78520;SHT31;67818;51.986;5.648;2023-03-23T11:19:56;18.0;50.6
78520;SHT31;67818;51.986;5.648;2023-03-23T11:22:28;17.9;50.2
78520;SHT31;67818;51.986;5.648;2023-03-23T11:25:01;17.7;51.0
78520;SHT31;67818;51.986;5.648;2023-03-23T11:27:33;17.6;52.0
78520;SHT31;67818;51.986;5.648;2023-03-23T11:30:11;17.4;52.8
78520;SHT31;67818;51.986;5.648;2023-03-23T11:32:45;17.3;52.7
78520;SHT31;67818;51.986;5.648;2023-03-23T11:35:21;17.2;52.7
78520;SHT31;67818;51.986;5.648;2023-03-23T11:37:54;17.0;53.0
78520;SHT31;67818;51.986;5.648;2023-03-23T11:43:46;17.5;52.5
78520;SHT31;67818;51.986;5.648;2023-03-23T11:46:30;17.5;53.3
78520;SHT31;67818;51.986;5.648;2023-03-23T11:49:08;17.5;51.6
78520;SHT31;67818;51.986;5.648;2023-03-23T11:51:45;17.5;51.0
78520;SHT31;67818;51.986;5.648;2023-03-23T11:54:23;17.4;51.0
78520;SHT31;67818;51.986;5.648;2023-03-23T11:56:55;17.4;51.8
78520;SHT31;67818;51.986;5.648;2023-03-23T11:59:32;17.4;51.7
78520;SHT31;67818;51.986;5.648;2023-03-23T12:02:19;17.4;51.6
78520;SHT31;67818;51.986;5.648;2023-03-23T12:06:01;17.7;51.1
78520;SHT31;67818;51.986;5.648;2023-03-23T12:10:05;18.1;48.3
78520;SHT31;67818;51.986;5.648;2023-03-23T12:12:47;18.0;49.0
78520;SHT31;67818;51.986;5.648;2023-03-23T12:15:27;17.9;49.8
78520;SHT31;67818;51.986;5.648;2023-03-23T12:18:12;17.8;50.0
78520;SHT31;67818;51.986;5.648;2023-03-23T12:20:53;17.7;52.8
78520;SHT31;67818;51.986;5.648;2023-03-23T12:23:30;17.4;54.7
78520;SHT31;67818;51.986;5.648;2023-03-23T12:26:13;16.9;57.5
78520;SHT31;67818;51.986;5.648;2023-03-23T12:29:18;16.2;61.0
78520;SHT31;67818;51.986;5.648;2023-03-23T12:32:00;15.5;64.2
78520;SHT31;67818;51.986;5.648;2023-03-23T12:34:43;15.1;67.4
78520;SHT31;67818;51.986;5.648;2023-03-23T12:37:28;14.9;67.1
78520;SHT31;67818;51.986;5.648;2023-03-23T12:40:19;14.6;68.4
78520;SHT31;67818;51.986;5.648;2023-03-23T12:42:58;14.3;70.7
78520;SHT31;67818;51.986;5.648;2023-03-23T12:45:55;14.2;71.8
78520;SHT31;67818;51.986;5.648;2023-03-23T12:48:32;14.0;72.6
78520;SHT31;67818;51.986;5.648;2023-03-23T12:51:09;13.9;74.8
78520;SHT31;67818;51.986;5.648;2023-03-23T12:53:46;13.9;75.7
78520;SHT31;67818;51.986;5.648;2023-03-23T12:56:22;13.8;75.9
78520;SHT31;67818;51.986;5.648;2023-03-23T12:59:02;13.8;74.8
78520;SHT31;67818;51.986;5.648;2023-03-23T13:01:38;13.8;74.5
78520;SHT31;67818;51.986;5.648;2023-03-23T13:04:13;13.8;74.2
78520;SHT31;67818;51.986;5.648;2023-03-23T13:06:46;13.8;74.1
78520;SHT31;67818;51.986;5.648;2023-03-23T13:09:24;13.8;74.3
78520;SHT31;67818;51.986;5.648;2023-03-23T13:11:58;13.8;74.1
78520;SHT31;67818;51.986;5.648;2023-03-23T13:40:58;17.8;57.6
78520;SHT31;67818;51.986;5.648;2023-03-23T13:43:37;17.1;60.4
78520;SHT31;67818;51.986;5.648;2023-03-23T13:46:27;16.9;60.0
78520;SHT31;67818;51.986;5.648;2023-03-23T13:49:16;16.8;60.3
78520;SHT31;67818;51.986;5.648;2023-03-23T13:52:06;16.7;61.4
78520;SHT31;67818;51.986;5.648;2023-03-23T13:54:43;16.6;61.7
78520;SHT31;67818;51.986;5.648;2023-03-23T13:57:24;16.5;61.8
78520;SHT31;67818;51.986;5.648;2023-03-23T14:00:25;16.5;61.5
78520;SHT31;67818;51.986;5.648;2023-03-23T14:03:01;16.4;62.0
78520;SHT31;67818;51.986;5.648;2023-03-23T14:05:35;16.3;62.7
78520;SHT31;67818;51.986;5.648;2023-03-23T14:08:14;16.2;63.4
78520;SHT31;67818;51.986;5.648;2023-03-23T14:10:52;16.1;63.5
78520;SHT31;67818;51.986;5.648;2023-03-23T14:13:34;16.1;63.8
78520;SHT31;67818;51.986;5.648;2023-03-23T14:16:18;16.0;65.4
78520;SHT31;67818;51.986;5.648;2023-03-23T14:18:56;16.0;64.3
78520;SHT31;67818;51.986;5.648;2023-03-23T14:21:35;16.0;65.1
78520;SHT31;67818;51.986;5.648;2023-03-23T14:24:10;16.0;64.7
78520;SHT31;67818;51.986;5.648;2023-03-23T14:26:41;16.0;62.9
78520;SHT31;67818;51.986;5.648;2023-03-23T14:29:13;16.0;63.2
78520;SHT31;67818;51.986;5.648;2023-03-23T14:31:44;16.0;61.5
78520;SHT31;67818;51.986;5.648;2023-03-23T14:34:18;16.0;61.0
78520;SHT31;67818;51.986;5.648;2023-03-23T14:36:49;16.1;61.0
78520;SHT31;67818;51.986;5.648;2023-03-23T14:42:43;17.2;57.7
78520;SHT31;67818;51.986;5.648;2023-03-23T14:45:17;17.4;55.6
78520;SHT31;67818;51.986;5.648;2023-03-23T14:47:51;17.5;56.2
78520;SHT31;67818;51.986;5.648;2023-03-23T14:50:29;17.6;54.8
78520;SHT31;67818;51.986;5.648;2023-03-23T14:53:43;17.8;56.0
78520;SHT31;67818;51.986;5.648;2023-03-23T14:56:14;17.9;53.4
78520;SHT31;67818;51.986;5.648;2023-03-23T15:04:41;18.1;52.6
78520;SHT31;67818;51.986;5.648;2023-03-23T15:08:47;18.1;53.8
78520;SHT31;67818;51.986;5.648;2023-03-23T15:11:25;18.1;52.0
78520;SHT31;67818;51.986;5.648;2023-03-23T15:13:59;18.1;52.0
78520;SHT31;67818;51.986;5.648;2023-03-23T15:16:59;18.0;52.6
78520;SHT31;67818;51.986;5.648;2023-03-23T15:19:36;17.9;52.4
78520;SHT31;67818;51.986;5.648;2023-03-23T15:22:17;17.9;53.4
78520;SHT31;67818;51.986;5.648;2023-03-23T15:24:48;17.9;52.7
78520;SHT31;67818;51.986;5.648;2023-03-23T15:27:25;17.8;53.1
78520;SHT31;67818;51.986;5.648;2023-03-23T15:29:58;17.8;53.0
78520;SHT31;67818;51.986;5.648;2023-03-23T15:32:30;17.7;53.1
78520;SHT31;67818;51.986;5.648;2023-03-23T15:35:04;17.7;53.7
78520;SHT31;67818;51.986;5.648;2023-03-23T15:37:40;17.6;53.6
78520;SHT31;67818;51.986;5.648;2023-03-23T15:40:17;17.5;53.7
78520;SHT31;67818;51.986;5.648;2023-03-23T15:42:50;17.4;53.8
78520;SHT31;67818;51.986;5.648;2023-03-23T15:45:27;17.3;53.6
78520;SHT31;67818;51.986;5.648;2023-03-23T15:48:11;17.2;54.4
78520;SHT31;67818;51.986;5.648;2023-03-23T15:50:41;17.2;55.9
78520;SHT31;67818;51.986;5.648;2023-03-23T15:53:19;17.1;56.0
78520;SHT31;67818;51.986;5.648;2023-03-23T15:55:52;17.1;56.3
78520;SHT31;67818;51.986;5.648;2023-03-23T15:58:22;17.1;56.6
78520;SHT31;67818;51.986;5.648;2023-03-23T16:00:52;17.1;56.2
78520;SHT31;67818;51.986;5.648;2023-03-23T16:03:24;17.1;56.3
78520;SHT31;67818;51.986;5.648;2023-03-23T16:05:56;17.1;56.6
78520;SHT31;67818;51.986;5.648;2023-03-23T16:08:30;17.1;56.2
78520;SHT31;67818;51.986;5.648;2023-03-23T16:10:59;17.1;56.8
78520;SHT31;67818;51.986;5.648;2023-03-23T16:13:29;17.1;56.4
78520;SHT31;67818;51.986;5.648;2023-03-23T16:15:58;17.1;56.5
78520;SHT31;67818;51.986;5.648;2023-03-23T16:18:31;17.1;56.3
78520;SHT31;67818;51.986;5.648;2023-03-23T16:21:01;17.1;56.7
78520;SHT31;67818;51.986;5.648;2023-03-23T16:23:30;17.1;55.9
78520;SHT31;67818;51.986;5.648;2023-03-23T16:26:00;17.0;56.6
78520;SHT31;67818;51.986;5.648;2023-03-23T16:28:29;17.0;56.3
78520;SHT31;67818;51.986;5.648;2023-03-23T16:31:01;17.0;55.4
78520;SHT31;67818;51.986;5.648;2023-03-23T16:33:30;16.9;55.4
78520;SHT31;67818;51.986;5.648;2023-03-23T16:36:00;16.9;55.6
78520;SHT31;67818;51.986;5.648;2023-03-23T16:38:30;16.8;56.0
78520;SHT31;67818;51.986;5.648;2023-03-23T16:40:59;16.7;55.9
78520;SHT31;67818;51.986;5.648;2023-03-23T16:43:29;16.6;56.3
78520;SHT31;67818;51.986;5.648;2023-03-23T16:45:59;16.5;57.1
78520;SHT31;67818;51.986;5.648;2023-03-23T16:48:29;16.4;57.4
78520;SHT31;67818;51.986;5.648;2023-03-23T16:51:00;16.3;57.8
78520;SHT31;67818;51.986;5.648;2023-03-23T16:53:29;16.3;58.0
78520;SHT31;67818;51.986;5.648;2023-03-23T16:56:01;16.2;58.5
78520;SHT31;67818;51.986;5.648;2023-03-23T16:58:30;16.2;58.7
78520;SHT31;67818;51.986;5.648;2023-03-23T17:01:02;16.1;57.8
78520;SHT31;67818;51.986;5.648;2023-03-23T17:03:32;16.1;58.1
78520;SHT31;67818;51.986;5.648;2023-03-23T17:06:02;16.1;58.0
78520;SHT31;67818;51.986;5.648;2023-03-23T17:08:33;16.1;58.6
78520;SHT31;67818;51.986;5.648;2023-03-23T17:11:03;16.1;58.4
78520;SHT31;67818;51.986;5.648;2023-03-23T17:13:33;16.0;58.1
78520;SHT31;67818;51.986;5.648;2023-03-23T17:16:02;16.0;58.1
78520;SHT31;67818;51.986;5.648;2023-03-23T17:18:32;16.0;58.4
78520;SHT31;67818;51.986;5.648;2023-03-23T17:21:02;16.0;58.9
78520;SHT31;67818;51.986;5.648;2023-03-23T17:23:33;16.0;58.9
78520;SHT31;67818;51.986;5.648;2023-03-23T17:26:03;16.0;58.5
78520;SHT31;67818;51.986;5.648;2023-03-23T17:28:33;16.0;58.8
78520;SHT31;67818;51.986;5.648;2023-03-23T17:31:03;16.0;58.9
78520;SHT31;67818;51.986;5.648;2023-03-23T17:33:33;16.0;59.3
78520;SHT31;67818;51.986;5.648;2023-03-23T17:36:03;15.9;59.2
78520;SHT31;67818;51.986;5.648;2023-03-23T17:38:32;15.9;59.5
78520;SHT31;67818;51.986;5.648;2023-03-23T17:41:06;16.0;59.3
78520;SHT31;67818;51.986;5.648;2023-03-23T17:43:38;16.0;59.5
78520;SHT31;67818;51.986;5.648;2023-03-23T17:46:09;16.1;58.7
78520;SHT31;67818;51.986;5.648;2023-03-23T17:48:39;16.1;58.9
78520;SHT31;67818;51.986;5.648;2023-03-23T17:51:09;16.1;58.9
78520;SHT31;67818;51.986;5.648;2023-03-23T17:53:39;16.1;58.8
78520;SHT31;67818;51.986;5.648;2023-03-23T17:56:10;16.1;59.2
78520;SHT31;67818;51.986;5.648;2023-03-23T17:58:39;16.0;59.0
78520;SHT31;67818;51.986;5.648;2023-03-23T18:01:09;16.0;59.2
78520;SHT31;67818;51.986;5.648;2023-03-23T18:03:39;16.0;59.2
78520;SHT31;67818;51.986;5.648;2023-03-23T18:06:09;15.9;59.5
78520;SHT31;67818;51.986;5.648;2023-03-23T18:08:39;15.9;59.5
78520;SHT31;67818;51.986;5.648;2023-03-23T18:11:08;15.9;59.8
78520;SHT31;67818;51.986;5.648;2023-03-23T18:13:38;15.8;59.9
78520;SHT31;67818;51.986;5.648;2023-03-23T18:16:09;15.8;59.9
78520;SHT31;67818;51.986;5.648;2023-03-23T18:18:41;15.8;60.2
78520;SHT31;67818;51.986;5.648;2023-03-23T18:21:13;15.8;60.5
78520;SHT31;67818;51.986;5.648;2023-03-23T18:23:42;15.8;60.5
78520;SHT31;67818;51.986;5.648;2023-03-23T18:26:13;15.8;60.8
78520;SHT31;67818;51.986;5.648;2023-03-23T18:28:50;15.8;61.1
78520;SHT31;67818;51.986;5.648;2023-03-23T18:31:23;15.7;61.3
78520;SHT31;67818;51.986;5.648;2023-03-23T18:33:58;15.7;61.5
78520;SHT31;67818;51.986;5.648;2023-03-23T18:36:37;15.7;61.8
78520;SHT31;67818;51.986;5.648;2023-03-23T18:39:10;15.7;62.0
78520;SHT31;67818;51.986;5.648;2023-03-23T18:41:42;15.7;62.2
78520;SHT31;67818;51.986;5.648;2023-03-23T18:44:12;15.7;62.3
78520;SHT31;67818;51.986;5.648;2023-03-23T18:46:44;15.7;62.6
78520;SHT31;67818;51.986;5.648;2023-03-23T18:49:16;15.7;62.6